Terminal Aerodrome Forecast
Issued by NWS Greer, SC

Home | Current Version | Previous Version | Text Only | Print | Product List | Glossary On
Versions: 1 2 3 4 5 6 7 8 9 10 11 12 13 14
000
FTUS42 KGSP 261740
TAFGSP
TAF
KGSP 261740Z 2618/2718 23009KT P6SM BKN040
     FM262100 20005KT P6SM VCSH BKN045
      TEMPO 2623/2703 4SM TSRA BKN030CB
     FM270300 19004KT P6SM VCSH BKN050
     FM271200 26003KT P6SM SCT020 OVC100 PROB30 2712/2718 4SM -TSRA
      OVC025CB=

USA.gov is the U.S. government's official web portal to all federal, state and local government web resources and services.